Time;durP1;ratioP1;P1;durP2;ratioP2;P2;SDS_P1;SDS_P2;PMS_P1;PMS_P2;Temp;Humidity;BMP_temperature;BMP_pressure;BME280_temperature;BME280_humidity;BME280_pressure;Samples;Min_cycle;Max_cycle;Signal;HPM_P1;HPM_P2
2023/09/10 00:01:45;;;;;;;32.22;23.73;;;;;;;26.03;65.21;101822.63;5031428;28;20458;-48
2023/09/10 00:04:11;;;;;;;26.48;21.67;;;;;;;25.97;65.39;101823.72;5032129;28;20118;-49
2023/09/10 00:06:36;;;;;;;29.48;22.88;;;;;;;25.95;65.28;101822.88;5032050;28;20101;-46
2023/09/10 00:09:03;;;;;;;25.00;18.58;;;;;;;25.93;65.40;101821.19;5031969;28;20037;-50
2023/09/10 00:11:29;;;;;;;26.83;20.23;;;;;;;25.89;65.67;101827.56;5032248;28;20041;-44
2023/09/10 00:13:54;;;;;;;24.63;19.83;;;;;;;25.85;65.77;101822.34;5032389;28;20113;-45
2023/09/10 00:16:20;;;;;;;23.95;19.58;;;;;;;25.86;65.62;101829.41;5031806;28;20117;-47
2023/09/10 00:18:45;;;;;;;29.00;22.67;;;;;;;25.79;65.63;101825.25;5032276;28;20042;-45
2023/09/10 00:21:11;;;;;;;30.75;22.65;;;;;;;25.82;65.74;101818.91;5031220;28;20449;-47
2023/09/10 00:23:36;;;;;;;26.65;21.27;;;;;;;25.82;65.58;101821.56;5032548;28;20175;-48
2023/09/10 00:26:02;;;;;;;27.55;20.90;;;;;;;25.81;65.59;101825.16;5030945;28;20038;-47
2023/09/10 00:28:27;;;;;;;26.80;19.85;;;;;;;25.78;65.89;101819.94;5033868;28;20483;-48
2023/09/10 00:30:54;;;;;;;27.50;21.27;;;;;;;25.71;66.12;101813.94;5035690;28;20087;-44
2023/09/10 00:33:19;;;;;;;24.90;19.65;;;;;;;25.70;65.82;101808.63;5035481;28;20037;-45
2023/09/10 00:35:45;;;;;;;25.58;20.23;;;;;;;25.66;66.06;101813.22;5036075;28;20045;-46
2023/09/10 00:38:10;;;;;;;25.25;19.88;;;;;;;25.67;66.16;101811.44;5035551;28;20030;-47
2023/09/10 00:40:35;;;;;;;24.40;19.55;;;;;;;25.58;66.53;101809.06;5035364;28;20124;-44
2023/09/10 00:43:01;;;;;;;29.02;20.30;;;;;;;25.61;66.36;101804.50;5035304;28;20049;-46
2023/09/10 00:45:27;;;;;;;25.95;19.95;;;;;;;25.56;66.43;101803.72;5036069;28;20029;-45
2023/09/10 00:47:53;;;;;;;24.13;20.17;;;;;;;25.65;66.19;101802.59;5035700;28;20546;-49
2023/09/10 00:50:19;;;;;;;24.05;19.02;;;;;;;25.64;66.03;101806.19;5034584;28;20041;-47
2023/09/10 00:52:49;;;;;;;24.67;19.33;;;;;;;25.68;65.97;101802.47;5035449;28;20041;-46
2023/09/10 00:55:15;;;;;;;26.38;21.17;;;;;;;25.65;66.12;101803.47;5034812;28;20067;-45
2023/09/10 00:57:40;;;;;;;24.65;19.52;;;;;;;25.66;65.77;101807.88;5035418;28;20099;-46
2023/09/10 01:00:11;;;;;;;24.65;19.65;;;;;;;25.62;65.81;101806.22;5034566;28;20038;-45
2023/09/10 01:02:38;;;;;;;24.63;20.17;;;;;;;25.65;66.00;101807.94;5036024;28;20061;-45
2023/09/10 01:05:04;;;;;;;25.00;19.10;;;;;;;25.66;65.78;101807.00;5034540;28;20120;-46
2023/09/10 01:07:29;;;;;;;24.77;20.23;;;;;;;25.62;65.77;101808.91;5035074;28;20057;-46
2023/09/10 01:09:55;;;;;;;24.17;19.75;;;;;;;25.61;65.58;101807.19;5034990;28;20084;-45
2023/09/10 01:12:50;;;;;;;23.50;19.17;;;;;;;25.52;66.04;101818.13;5034828;28;20117;-47
2023/09/10 01:15:35;;;;;;;23.10;18.17;;;;;;;25.49;66.32;101812.91;5033755;28;20083;-46
2023/09/10 01:18:20;;;;;;;25.08;20.45;;;;;;;25.39;66.79;101804.31;5032682;28;20062;-47
2023/09/10 01:20:55;;;;;;;24.42;19.08;;;;;;;25.38;66.50;101804.34;5032972;28;20033;-47
2023/09/10 01:23:39;;;;;;;23.60;18.23;;;;;;;25.36;67.05;101803.56;5032691;28;20045;-47
2023/09/10 01:26:05;;;;;;;23.95;19.10;;;;;;;25.36;66.92;101803.56;5031624;28;20033;-44
2023/09/10 01:28:30;;;;;;;26.25;18.08;;;;;;;25.34;66.79;101802.72;5032377;28;20127;-49
2023/09/10 01:30:56;;;;;;;22.92;18.88;;;;;;;25.23;67.36;101807.53;5032171;28;20029;-48
2023/09/10 01:33:35;;;;;;;24.52;18.42;;;;;;;25.26;67.13;101805.63;5031498;28;20368;-47
2023/09/10 01:36:21;;;;;;;23.60;18.77;;;;;;;25.21;67.19;101812.03;5031626;28;20041;-48
2023/09/10 01:39:02;;;;;;;24.15;19.23;;;;;;;25.16;67.61;101804.19;5032442;28;20112;-46
2023/09/10 01:41:30;;;;;;;25.48;19.50;;;;;;;25.11;67.87;101807.94;5032217;28;20037;-48
2023/09/10 01:43:59;;;;;;;21.83;17.23;;;;;;;25.07;67.86;101804.47;5032745;28;20175;-46
2023/09/10 01:46:27;;;;;;;21.63;16.83;;;;;;;25.13;68.06;101806.09;5031910;28;20033;-46
2023/09/10 01:48:53;;;;;;;21.65;16.73;;;;;;;25.10;67.95;101808.84;5032398;28;20029;-50
2023/09/10 01:51:19;;;;;;;20.35;16.10;;;;;;;25.09;68.17;101802.66;5031705;28;20037;-50
2023/09/10 01:53:46;;;;;;;22.08;17.45;;;;;;;25.13;67.84;101808.78;5032758;28;20187;-46
2023/09/10 01:56:11;;;;;;;22.63;18.05;;;;;;;24.96;68.45;101809.28;5032232;28;20036;-47
2023/09/10 01:58:38;;;;;;;21.20;16.38;;;;;;;25.17;67.35;101807.75;5032129;28;20034;-45
2023/09/10 02:01:05;;;;;;;21.30;17.15;;;;;;;25.09;67.54;101807.09;5031531;28;20116;-45
2023/09/10 02:03:30;;;;;;;20.73;16.95;;;;;;;25.14;67.63;101803.34;5032534;28;20526;-48
2023/09/10 02:05:57;;;;;;;21.88;16.88;;;;;;;25.17;67.15;101805.94;5032220;28;20056;-49
2023/09/10 02:08:23;;;;;;;22.70;18.55;;;;;;;24.99;67.99;101814.53;5032171;28;20554;-46
2023/09/10 02:10:48;;;;;;;22.60;18.50;;;;;;;25.17;67.54;101810.41;5032736;28;20036;-47
2023/09/10 02:13:13;;;;;;;21.40;17.20;;;;;;;25.09;67.61;101815.09;5031777;28;20053;-46
2023/09/10 02:15:39;;;;;;;23.90;18.38;;;;;;;25.26;67.03;101813.63;5031973;28;20033;-45
2023/09/10 02:18:05;;;;;;;24.00;19.00;;;;;;;25.24;67.07;101819.97;5031685;28;20033;-48
2023/09/10 02:20:35;;;;;;;22.17;18.85;;;;;;;25.23;66.88;101818.22;5031877;28;20041;-47
2023/09/10 02:23:00;;;;;;;25.35;20.15;;;;;;;25.12;67.17;101809.69;5032216;28;20030;-45
2023/09/10 02:25:25;;;;;;;22.35;18.65;;;;;;;25.35;66.44;101815.16;5031803;28;20075;-44
2023/09/10 02:27:51;;;;;;;22.52;18.73;;;;;;;25.31;66.42;101821.53;5031978;28;20060;-52
2023/09/10 02:30:16;;;;;;;26.15;20.00;;;;;;;25.07;67.09;101801.81;5031663;28;20390;-46
2023/09/10 02:32:42;;;;;;;26.40;19.63;;;;;;;25.29;66.09;101810.00;5031139;28;20034;-45
2023/09/10 02:35:07;;;;;;;26.73;20.90;;;;;;;25.25;66.20;101808.38;5032175;28;20041;-48
2023/09/10 02:37:33;;;;;;;26.23;20.10;;;;;;;25.30;65.75;101809.09;5013886;28;20049;-46
2023/09/10 02:39:58;;;;;;;25.58;20.45;;;;;;;25.40;65.42;101806.06;5011987;28;20038;-45
2023/09/10 02:42:24;;;;;;;27.08;22.15;;;;;;;25.24;65.80;101803.94;5013214;28;20458;-45
2023/09/10 02:44:49;;;;;;;29.02;22.27;;;;;;;25.24;65.72;101796.81;5011956;28;20037;-45
2023/09/10 02:47:14;;;;;;;27.23;20.38;;;;;;;25.47;64.86;101793.38;5010969;28;20046;-45
2023/09/10 02:49:40;;;;;;;30.13;23.83;;;;;;;25.10;65.90;101793.72;5011795;28;20037;-47
2023/09/10 02:52:05;;;;;;;27.55;22.30;;;;;;;25.27;65.47;101795.81;5011048;28;20096;-44
2023/09/10 02:54:34;;;;;;;30.98;23.08;;;;;;;25.13;65.79;101790.09;4994189;28;20103;-47
2023/09/10 02:56:59;;;;;;;28.85;22.67;;;;;;;25.36;64.64;101791.09;5009943;28;20064;-45
2023/09/10 02:59:27;;;;;;;31.00;23.35;;;;;;;25.49;64.65;101794.22;5010456;28;20089;-46
2023/09/10 03:01:53;;;;;;;29.50;22.48;;;;;;;25.46;64.69;101788.97;5010271;28;20041;-46
2023/09/10 03:04:19;;;;;;;28.00;22.85;;;;;;;25.54;64.01;101789.59;5010510;28;20509;-45
2023/09/10 03:06:45;;;;;;;26.35;21.73;;;;;;;25.54;63.91;101797.59;5012000;28;20084;-47
2023/09/10 03:09:13;;;;;;;25.58;19.77;;;;;;;25.51;63.99;101794.13;5011366;28;20029;-49
2023/09/10 03:11:40;;;;;;;30.05;23.45;;;;;;;25.32;64.95;101799.22;5011933;28;20033;-50
2023/09/10 03:14:05;;;;;;;30.48;23.40;;;;;;;25.37;64.76;101799.97;5011233;28;20041;-49
2023/09/10 03:16:32;;;;;;;31.00;24.30;;;;;;;25.26;65.36;101792.28;5010455;28;20038;-45
2023/09/10 03:18:57;;;;;;;30.17;23.77;;;;;;;25.30;65.04;101798.41;5011612;28;20049;-48
2023/09/10 03:21:23;;;;;;;28.65;23.95;;;;;;;25.24;65.18;101791.47;5010739;28;20033;-46
2023/09/10 03:23:48;;;;;;;27.70;22.48;;;;;;;25.35;64.79;101783.13;5010229;28;20033;-47
2023/09/10 03:26:13;;;;;;;33.00;25.23;;;;;;;25.05;65.98;101785.88;5011248;28;20038;-47
2023/09/10 03:28:40;;;;;;;31.50;25.02;;;;;;;24.83;66.68;101771.41;5010637;28;20033;-47
2023/09/10 03:31:06;;;;;;;33.85;25.50;;;;;;;24.77;66.92;101776.94;5010266;28;20045;-45
2023/09/10 03:33:31;;;;;;;32.30;24.98;;;;;;;25.16;65.79;101787.31;5012096;28;20392;-47
2023/09/10 03:35:57;;;;;;;36.25;26.48;;;;;;;24.91;66.53;101773.88;5010025;28;20044;-53
2023/09/10 03:38:22;;;;;;;35.90;26.58;;;;;;;24.81;66.67;101777.75;4994561;28;20034;-47
2023/09/10 03:40:47;;;;;;;36.13;26.55;;;;;;;24.81;66.85;101775.06;5012099;28;20053;-49
2023/09/10 03:43:14;;;;;;;36.88;27.45;;;;;;;24.76;66.67;101769.88;5011059;28;20057;-45
2023/09/10 03:45:39;;;;;;;32.95;25.92;;;;;;;25.15;65.55;101770.41;5010751;28;20038;-47
2023/09/10 03:48:05;;;;;;;35.67;26.80;;;;;;;25.19;65.23;101777.41;5011319;28;20112;-48
2023/09/10 03:50:30;;;;;;;35.38;25.45;;;;;;;25.10;65.18;101779.50;5011324;28;20693;-45
2023/09/10 03:52:55;;;;;;;36.10;26.67;;;;;;;25.04;65.78;101784.13;5012041;28;20050;-46
2023/09/10 03:55:21;;;;;;;38.97;27.42;;;;;;;25.01;65.92;101780.66;5011146;28;20065;-47
2023/09/10 03:57:46;;;;;;;35.60;27.58;;;;;;;24.98;66.10;101778.97;5011555;28;20030;-50
2023/09/10 04:00:12;;;;;;;37.83;29.00;;;;;;;24.81;66.78;101775.94;5010563;28;20193;-47
2023/09/10 04:02:37;;;;;;;36.80;27.95;;;;;;;25.13;65.67;101777.59;5013197;28;20045;-53
2023/09/10 04:05:04;;;;;;;39.95;27.95;;;;;;;25.15;65.66;101777.56;5015147;28;20042;-49
2023/09/10 04:07:29;;;;;;;39.08;29.20;;;;;;;24.93;66.37;101780.06;5015658;28;20404;-52
2023/09/10 04:09:55;;;;;;;37.17;28.25;;;;;;;25.02;66.04;101779.75;5015406;28;20038;-46
2023/09/10 04:12:20;;;;;;;40.03;29.33;;;;;;;24.91;66.22;101780.09;5015894;28;20022;-48
2023/09/10 04:14:45;;;;;;;38.50;29.60;;;;;;;24.98;66.14;101781.66;5016249;28;20100;-48
2023/09/10 04:17:16;;;;;;;39.55;28.65;;;;;;;24.90;66.67;101777.47;5015223;28;20088;-49
2023/09/10 04:19:41;;;;;;;37.72;29.27;;;;;;;24.85;66.55;101777.59;5014301;28;20516;-48
2023/09/10 04:22:07;;;;;;;38.20;30.40;;;;;;;24.75;67.23;101788.59;5015334;28;20080;-46
2023/09/10 04:24:33;;;;;;;38.25;28.65;;;;;;;24.92;66.38;101775.63;5015020;28;20141;-51
2023/09/10 04:26:58;;;;;;;43.50;29.85;;;;;;;25.03;66.07;101778.81;5014505;28;20138;-49
2023/09/10 04:29:24;;;;;;;40.47;29.48;;;;;;;24.75;67.00;101776.13;5013955;28;20125;-49
2023/09/10 04:31:50;;;;;;;38.30;28.52;;;;;;;25.10;65.59;101772.38;5014291;28;20102;-46
2023/09/10 04:34:16;;;;;;;42.20;30.38;;;;;;;25.05;65.87;101777.88;5013693;28;20053;-47
2023/09/10 04:36:41;;;;;;;45.45;30.80;;;;;;;24.84;66.78;101770.50;5015810;28;20034;-50
2023/09/10 04:39:09;;;;;;;45.15;30.35;;;;;;;24.72;67.55;101773.56;5015075;28;20026;-46
2023/09/10 04:41:36;;;;;;;42.00;31.77;;;;;;;25.01;66.47;101772.66;5015659;28;20490;-46
2023/09/10 04:44:02;;;;;;;42.03;30.75;;;;;;;24.74;67.30;101774.38;5014632;28;20038;-49
2023/09/10 04:46:28;;;;;;;43.53;32.28;;;;;;;24.76;67.36;101780.56;5015591;28;20037;-47
2023/09/10 04:48:54;;;;;;;42.75;31.60;;;;;;;24.57;67.82;101780.25;5015486;28;20037;-47
2023/09/10 04:51:19;;;;;;;42.65;33.03;;;;;;;24.49;68.54;101779.59;5014436;28;20041;-46
2023/09/10 04:53:44;;;;;;;45.38;33.28;;;;;;;24.59;68.44;101788.16;5015094;28;20068;-46
2023/09/10 04:56:10;;;;;;;43.83;31.77;;;;;;;24.89;66.77;101784.59;5012837;28;20045;-49
2023/09/10 04:58:36;;;;;;;43.38;32.83;;;;;;;24.77;67.57;101784.06;5015886;28;20048;-47
2023/09/10 05:01:02;;;;;;;46.17;32.75;;;;;;;24.87;67.07;101781.09;5014299;28;20468;-52
2023/09/10 05:03:27;;;;;;;44.67;33.15;;;;;;;24.64;67.83;101779.09;5015156;28;20044;-48
2023/09/10 05:06:00;;;;;;;42.78;32.58;;;;;;;24.60;68.29;101788.13;5014361;28;20053;-46
2023/09/10 05:08:26;;;;;;;43.00;33.53;;;;;;;24.62;68.33;101780.09;5014462;28;20058;-48
2023/09/10 05:10:52;;;;;;;41.38;31.27;;;;;;;24.67;68.15;101787.03;5014452;28;20061;-45
2023/09/10 05:13:17;;;;;;;41.90;31.40;;;;;;;24.76;67.77;101774.34;5013054;28;20030;-52
2023/09/10 05:15:45;;;;;;;46.58;33.95;;;;;;;24.52;68.36;101781.28;5012118;28;20048;-47
2023/09/10 05:18:11;;;;;;;42.17;31.13;;;;;;;24.58;68.23;101783.75;5012392;28;20034;-52
2023/09/10 05:20:36;;;;;;;40.08;31.52;;;;;;;24.64;68.24;101773.78;5012481;28;20116;-47
2023/09/10 05:23:01;;;;;;;42.50;30.77;;;;;;;24.67;68.17;101779.03;5014082;28;20519;-50
2023/09/10 05:25:27;;;;;;;45.60;31.85;;;;;;;24.81;67.79;101775.94;5014567;28;20030;-52
2023/09/10 05:27:52;;;;;;;41.40;30.20;;;;;;;24.77;67.81;101773.41;5014306;28;20103;-50
2023/09/10 05:30:18;;;;;;;41.42;31.83;;;;;;;24.45;69.29;101779.72;5013796;28;20037;-46
2023/09/10 05:32:43;;;;;;;43.65;32.95;;;;;;;24.35;69.88;101775.56;5013693;28;20045;-50
2023/09/10 05:35:10;;;;;;;40.55;31.63;;;;;;;24.58;68.87;101773.09;5013232;28;20746;-47
2023/09/10 05:37:35;;;;;;;45.25;31.77;;;;;;;24.61;69.00;101781.00;5014486;28;20049;-50
2023/09/10 05:40:01;;;;;;;43.60;32.35;;;;;;;24.49;69.28;101778.72;5013526;28;20030;-49
2023/09/10 05:42:27;;;;;;;43.65;31.70;;;;;;;24.74;68.42;101782.38;5012864;28;20127;-50
2023/09/10 05:44:52;;;;;;;40.90;31.02;;;;;;;24.82;68.36;101779.50;5013123;28;20192;-48
2023/09/10 05:47:20;;;;;;;41.47;32.22;;;;;;;24.78;68.12;101780.47;5012570;28;20045;-48
2023/09/10 05:49:47;;;;;;;43.15;32.15;;;;;;;24.99;67.54;101783.41;5012831;28;20069;-47
2023/09/10 05:52:12;;;;;;;44.85;31.88;;;;;;;24.80;68.10;101787.53;5013005;28;20444;-48
2023/09/10 05:54:38;;;;;;;41.33;31.63;;;;;;;25.02;67.27;101788.63;5014704;28;20092;-46
2023/09/10 05:57:03;;;;;;;43.17;32.00;;;;;;;24.94;67.59;101782.69;5013776;28;20037;-47
2023/09/10 05:59:28;;;;;;;44.88;32.67;;;;;;;24.83;68.10;101783.88;5014475;28;20040;-48
2023/09/10 06:01:54;;;;;;;41.80;32.13;;;;;;;24.92;68.09;101779.19;5012824;28;20038;-45
2023/09/10 06:04:19;;;;;;;44.95;33.20;;;;;;;25.07;67.15;101787.63;5012726;28;20420;-49
2023/09/10 06:06:44;;;;;;;42.22;32.03;;;;;;;24.96;67.65;101791.47;5013547;28;20030;-46
2023/09/10 06:09:10;;;;;;;43.08;32.88;;;;;;;25.23;66.69;101795.06;5013931;28;20124;-46
2023/09/10 06:11:35;;;;;;;43.42;33.05;;;;;;;25.33;66.52;101795.63;5014763;28;20038;-46
2023/09/10 06:14:01;;;;;;;44.95;34.97;;;;;;;24.99;67.57;101793.19;5013848;28;20044;-47
2023/09/10 06:16:26;;;;;;;46.17;33.95;;;;;;;25.42;66.04;101803.34;5014657;28;20068;-45
2023/09/10 06:18:52;;;;;;;50.00;33.10;;;;;;;25.53;66.05;101808.31;5015120;28;20113;-46
2023/09/10 06:21:17;;;;;;;47.50;36.05;;;;;;;25.24;66.53;101806.63;5013708;28;20033;-49
2023/09/10 06:23:42;;;;;;;46.78;35.53;;;;;;;25.35;66.10;101809.81;5013295;28;20033;-47
2023/09/10 06:26:08;;;;;;;49.45;35.78;;;;;;;25.46;66.21;101802.31;5012635;28;20115;-51
2023/09/10 06:28:34;;;;;;;47.22;33.95;;;;;;;25.92;64.68;101814.13;5013688;28;20511;-52
2023/09/10 06:30:59;;;;;;;46.38;35.35;;;;;;;25.89;64.96;101817.75;5012675;28;20034;-47
2023/09/10 06:33:24;;;;;;;44.70;33.90;;;;;;;26.65;62.61;101810.47;5013126;28;20080;-49
2023/09/10 06:35:50;;;;;;;44.55;33.42;;;;;;;27.56;59.19;101816.69;5012787;28;20056;-47
2023/09/10 06:38:15;;;;;;;44.13;32.53;;;;;;;28.40;56.12;101816.53;5010436;28;20701;-46
2023/09/10 06:40:40;;;;;;;46.78;34.60;;;;;;;28.59;54.53;101819.25;5012981;28;20045;-47
2023/09/10 06:43:08;;;;;;;40.83;30.75;;;;;;;29.18;53.59;101818.22;5013092;28;20133;-47
2023/09/10 06:45:33;;;;;;;44.58;34.30;;;;;;;29.37;52.22;101817.25;5013113;28;20064;-46
2023/09/10 06:47:59;;;;;;;41.75;32.42;;;;;;;29.97;50.08;101828.53;5013570;28;20034;-49
2023/09/10 06:50:24;;;;;;;38.35;30.65;;;;;;;30.28;50.16;101821.53;5008479;28;20040;-49
2023/09/10 06:52:50;;;;;;;39.85;31.27;;;;;;;30.71;48.11;101822.75;5014315;28;20093;-46
2023/09/10 06:55:16;;;;;;;41.65;32.10;;;;;;;30.94;47.08;101814.25;5012869;28;20038;-50
2023/09/10 06:57:42;;;;;;;38.63;29.85;;;;;;;30.88;47.61;101817.28;5012092;28;20085;-48
2023/09/10 07:00:08;;;;;;;35.45;28.30;;;;;;;30.86;48.02;101820.06;5013274;28;20060;-49
2023/09/10 07:02:34;;;;;;;37.28;29.48;;;;;;;31.01;47.48;101821.91;5013647;28;20522;-47
2023/09/10 07:05:00;;;;;;;38.22;29.98;;;;;;;31.10;46.77;101820.56;5012932;28;20049;-47
2023/09/10 07:07:26;;;;;;;42.88;31.25;;;;;;;31.60;44.68;101822.13;5013446;28;20092;-47
2023/09/10 07:09:51;;;;;;;44.03;31.88;;;;;;;31.42;45.05;101821.34;5013662;28;20069;-49
2023/09/10 07:12:17;;;;;;;39.30;31.30;;;;;;;31.96;45.11;101821.75;5013379;28;20045;-47
2023/09/10 07:14:44;;;;;;;35.92;30.27;;;;;;;32.31;42.90;101817.75;5013511;28;20061;-47
2023/09/10 07:17:09;;;;;;;34.33;26.30;;;;;;;32.05;44.62;101815.78;5012877;28;20034;-47
2023/09/10 07:19:35;;;;;;;37.00;27.95;;;;;;;32.07;44.15;101820.13;5012358;28;20066;-50
2023/09/10 07:22:00;;;;;;;36.70;28.35;;;;;;;32.44;43.22;101816.03;5011675;28;20083;-50
2023/09/10 07:24:26;;;;;;;34.13;26.88;;;;;;;32.41;43.87;101810.81;5011779;28;20045;-47
2023/09/10 07:26:51;;;;;;;39.28;29.52;;;;;;;32.55;42.97;101820.75;5012179;28;20308;-46
2023/09/10 07:29:17;;;;;;;37.95;31.10;;;;;;;32.36;43.16;101818.34;5012302;28;20042;-49
2023/09/10 07:31:43;;;;;;;37.75;30.02;;;;;;;32.38;44.16;101824.50;5012631;28;20548;-51
2023/09/10 07:34:09;;;;;;;35.28;29.10;;;;;;;32.52;43.63;101818.22;5012658;28;20041;-47
2023/09/10 07:36:35;;;;;;;32.55;24.58;;;;;;;32.91;42.99;101823.81;5011271;28;20034;-46
2023/09/10 07:39:00;;;;;;;34.78;27.25;;;;;;;33.17;42.19;101816.69;5011460;28;20538;-47
2023/09/10 07:41:26;;;;;;;34.13;27.23;;;;;;;32.66;43.06;101817.34;5012488;28;20037;-47
2023/09/10 07:43:51;;;;;;;35.65;28.60;;;;;;;31.68;45.33;101818.00;5011743;28;20486;-54
2023/09/10 07:46:16;;;;;;;39.83;30.83;;;;;;;30.80;47.95;101823.09;5011261;28;20038;-46
2023/09/10 07:48:42;;;;;;;42.65;31.63;;;;;;;30.05;50.57;101822.75;5011939;28;20034;-47
2023/09/10 07:51:07;;;;;;;42.50;31.73;;;;;;;29.80;51.95;101821.31;5011632;28;20121;-49
2023/09/10 07:53:33;;;;;;;44.35;33.83;;;;;;;29.72;51.72;101826.22;5012319;28;20579;-45
2023/09/10 07:55:58;;;;;;;38.00;30.63;;;;;;;29.76;53.06;101829.63;5011316;28;20064;-48
2023/09/10 07:58:24;;;;;;;45.17;32.95;;;;;;;29.69;52.81;101825.50;5012908;28;20046;-52
2023/09/10 08:00:53;;;;;;;39.45;30.60;;;;;;;29.67;53.35;101828.28;5011055;28;20053;-46
2023/09/10 08:03:18;;;;;;;44.80;32.53;;;;;;;29.39;53.93;101830.63;5011675;28;20037;-46
2023/09/10 08:05:44;;;;;;;42.35;31.67;;;;;;;29.57;53.69;101835.06;5012061;28;20061;-54
2023/09/10 08:08:09;;;;;;;42.97;32.33;;;;;;;29.41;54.16;101834.09;5010976;28;20034;-47
2023/09/10 08:10:34;;;;;;;40.50;32.10;;;;;;;29.42;54.72;101835.81;5009990;28;20523;-50
2023/09/10 08:13:03;;;;;;;41.90;32.00;;;;;;;29.71;53.48;101845.09;5011296;28;20038;-47
2023/09/10 08:15:29;;;;;;;41.92;31.92;;;;;;;29.66;53.79;101831.03;5012533;28;20088;-47
2023/09/10 08:17:56;;;;;;;42.05;31.90;;;;;;;29.55;54.51;101826.22;5012118;28;20041;-48
2023/09/10 08:20:22;;;;;;;42.33;32.38;;;;;;;29.54;54.75;101826.28;5011541;28;20030;-49
2023/09/10 08:22:47;;;;;;;40.60;32.88;;;;;;;29.43;55.68;101824.13;5011889;28;20038;-45
2023/09/10 08:25:13;;;;;;;41.05;31.27;;;;;;;29.62;55.38;101824.94;5009953;28;20472;-52
2023/09/10 08:27:39;;;;;;;40.33;30.55;;;;;;;29.59;54.72;101826.91;5012424;28;20061;-54
2023/09/10 08:30:07;;;;;;;42.40;30.95;;;;;;;29.22;55.61;101819.78;5011442;28;20514;-53
2023/09/10 08:32:36;;;;;;;41.35;29.77;;;;;;;29.55;55.89;101822.66;5010254;28;20092;-51
2023/09/10 08:35:03;;;;;;;38.40;28.83;;;;;;;29.90;54.79;101819.00;5009632;28;20034;-48
2023/09/10 08:37:29;;;;;;;40.72;32.00;;;;;;;29.60;54.49;101818.78;5012399;28;20034;-45
2023/09/10 08:39:54;;;;;;;41.47;28.38;;;;;;;30.09;53.58;101824.31;5011066;28;20045;-45
2023/09/10 08:42:56;;;;;;;40.67;30.30;;;;;;;30.22;53.31;101825.41;5010092;28;20042;-47
2023/09/10 08:45:23;;;;;;;40.28;29.45;;;;;;;30.27;53.46;101823.34;5009647;28;20037;-47
2023/09/10 08:47:51;;;;;;;38.05;29.50;;;;;;;30.17;53.86;101811.34;5009358;28;20543;-53
2023/09/10 08:50:17;;;;;;;35.90;27.35;;;;;;;30.51;52.90;101811.28;5011959;28;20395;-47
2023/09/10 08:52:44;;;;;;;36.97;28.52;;;;;;;30.63;53.53;101815.97;5012946;28;20030;-51
2023/09/10 08:55:11;;;;;;;37.63;27.70;;;;;;;30.75;53.16;101811.72;5010792;28;20030;-47
2023/09/10 08:57:39;;;;;;;37.85;28.23;;;;;;;30.88;53.03;101809.22;5012438;28;20034;-50
2023/09/10 09:00:13;;;;;;;36.80;27.17;;;;;;;30.98;52.67;101808.59;5013224;28;20435;-46
2023/09/10 09:02:40;;;;;;;39.30;25.92;;;;;;;30.83;52.36;101809.47;5014095;28;20045;-48
2023/09/10 09:05:06;;;;;;;39.47;27.75;;;;;;;30.79;52.50;101813.31;5013035;28;20108;-47
2023/09/10 09:07:45;;;;;;;36.72;25.83;;;;;;;30.86;52.93;101814.69;5012697;28;20076;-48
2023/09/10 09:10:18;;;;;;;37.20;26.55;;;;;;;30.80;53.41;101817.72;5011929;28;20520;-45
2023/09/10 09:12:44;;;;;;;33.03;24.67;;;;;;;31.05;51.78;101806.44;5013700;28;20117;-47
2023/09/10 09:15:11;;;;;;;33.35;24.90;;;;;;;30.85;52.51;101809.41;5012478;28;20033;-51
2023/09/10 09:17:38;;;;;;;36.20;27.70;;;;;;;30.92;51.83;101813.50;5012499;28;20044;-47
2023/09/10 09:20:10;;;;;;;34.65;25.08;;;;;;;31.19;51.30;101811.06;5011418;28;20034;-51
2023/09/10 09:22:36;;;;;;;34.75;25.67;;;;;;;31.40;50.96;101816.06;5013681;28;20463;-47
2023/09/10 09:25:03;;;;;;;35.60;26.08;;;;;;;31.32;52.00;101817.47;5012723;28;20032;-48
2023/09/10 09:27:29;;;;;;;35.53;24.90;;;;;;;31.22;51.95;101814.47;5013103;28;20036;-47
2023/09/10 09:29:55;;;;;;;33.95;23.20;;;;;;;31.45;51.72;101813.09;5012895;28;20122;-48
2023/09/10 09:32:20;;;;;;;30.20;19.88;;;;;;;31.64;51.03;101813.78;5012688;28;20058;-44
2023/09/10 09:34:45;;;;;;;31.17;22.30;;;;;;;31.79;51.06;101806.56;5012206;28;20042;-46
2023/09/10 09:37:17;;;;;;;33.83;22.40;;;;;;;31.55;51.08;101803.50;5012034;28;20034;-44
2023/09/10 09:39:45;;;;;;;31.58;24.02;;;;;;;31.38;51.17;101811.72;5012508;28;20042;-50
2023/09/10 09:42:10;;;;;;;33.83;23.65;;;;;;;31.43;51.67;101801.53;5012026;28;20046;-47
2023/09/10 09:44:36;;;;;;;30.23;21.92;;;;;;;31.57;50.99;101800.72;5011981;28;20052;-43
2023/09/10 09:47:02;;;;;;;30.27;23.05;;;;;;;31.77;51.15;101800.44;5011561;28;20044;-46
2023/09/10 09:49:27;;;;;;;26.95;21.05;;;;;;;31.94;51.56;101805.66;5012084;28;20037;-46
2023/09/10 09:51:52;;;;;;;35.67;21.63;;;;;;;32.14;49.89;101809.84;5012695;28;20037;-50
2023/09/10 09:54:18;;;;;;;34.25;22.88;;;;;;;32.08;49.72;101802.13;5011894;28;20461;-46
2023/09/10 09:56:45;;;;;;;34.85;22.95;;;;;;;32.32;49.64;101805.13;5013333;28;20088;-47
2023/09/10 09:59:10;;;;;;;27.85;18.40;;;;;;;32.41;49.86;101797.31;5011779;28;20042;-45
2023/09/10 10:01:39;;;;;;;27.77;20.33;;;;;;;32.52;49.05;101797.50;5011517;28;20376;-45
2023/09/10 10:04:05;;;;;;;27.00;19.00;;;;;;;32.57;49.20;101803.47;5011251;28;20038;-46
2023/09/10 10:06:31;;;;;;;28.77;19.27;;;;;;;32.85;48.62;101799.88;5011665;28;20042;-43
2023/09/10 10:08:56;;;;;;;24.02;17.85;;;;;;;32.98;48.38;101795.41;5011269;28;20061;-48
2023/09/10 10:11:28;;;;;;;23.33;16.33;;;;;;;33.00;46.97;101792.59;5009192;28;20033;-45
2023/09/10 10:13:54;;;;;;;22.80;14.60;;;;;;;33.22;47.27;101787.53;5010943;28;20530;-46
2023/09/10 10:16:20;;;;;;;27.38;17.13;;;;;;;33.17;48.06;101781.56;5011305;28;20045;-46
2023/09/10 10:18:46;;;;;;;24.67;17.48;;;;;;;33.31;47.13;101786.03;5014262;28;20042;-46
2023/09/10 10:21:12;;;;;;;25.55;16.08;;;;;;;33.30;46.08;101784.34;5012750;28;20044;-43
2023/09/10 10:23:38;;;;;;;21.55;16.23;;;;;;;33.06;46.81;101788.66;5012080;28;20034;-48
2023/09/10 10:26:05;;;;;;;24.83;16.00;;;;;;;33.07;46.33;101782.25;5010476;28;20108;-43
2023/09/10 10:28:33;;;;;;;21.48;14.50;;;;;;;33.00;46.00;101788.06;5010720;28;20038;-41
2023/09/10 10:31:12;;;;;;;22.00;13.63;;;;;;;33.28;45.64;101780.84;5009981;28;20034;-42
2023/09/10 10:33:48;;;;;;;18.77;12.32;;;;;;;33.55;43.85;101778.97;5010789;28;20049;-43
2023/09/10 10:36:32;;;;;;;17.95;12.55;;;;;;;33.43;44.74;101780.66;5010485;28;20037;-47
2023/09/10 10:39:00;;;;;;;19.40;11.10;;;;;;;33.22;44.44;101770.47;5010039;28;20038;-43
2023/09/10 10:41:29;;;;;;;15.10;10.32;;;;;;;33.67;44.26;101769.13;5010741;28;20046;-42
2023/09/10 10:44:17;;;;;;;20.08;10.43;;;;;;;33.73;43.38;101780.44;5010942;28;20030;-42
2023/09/10 10:46:43;;;;;;;15.50;8.88;;;;;;;33.93;42.88;101775.47;5011960;28;20100;-43
2023/09/10 10:49:09;;;;;;;15.18;8.95;;;;;;;34.04;42.07;101778.28;5010634;28;20045;-43
2023/09/10 10:51:40;;;;;;;13.43;8.27;;;;;;;34.23;41.91;101784.16;5010748;28;20121;-43
2023/09/10 10:54:06;;;;;;;18.58;8.32;;;;;;;34.32;40.62;101769.97;5009960;28;20125;-46
2023/09/10 10:56:32;;;;;;;15.57;8.48;;;;;;;34.26;41.23;101769.53;5010169;28;20125;-47
2023/09/10 10:58:57;;;;;;;17.67;8.60;;;;;;;34.44;41.39;101765.50;5009872;28;20076;-48
2023/09/10 11:01:23;;;;;;;14.57;7.70;;;;;;;34.55;40.59;101774.56;5010500;28;20046;-48
2023/09/10 11:03:49;;;;;;;19.63;7.75;;;;;;;34.44;39.28;101769.06;5009249;28;20045;-43
2023/09/10 11:06:14;;;;;;;18.27;7.90;;;;;;;34.33;38.50;101763.56;5009382;28;20381;-45
2023/09/10 11:08:46;;;;;;;15.85;7.75;;;;;;;34.39;38.24;101756.84;5008192;28;20037;-47